sensor_id;sensor_type;location;lat;lon;timestamp;P1;durP1;ratioP1;P2;durP2;ratioP2
1446;SDS011;717;51.522;7.266;2022-11-11T00:02:24;3.80;;;1.10;;
1446;SDS011;717;51.522;7.266;2022-11-11T00:04:53;3.75;;;1.10;;
1446;SDS011;717;51.522;7.266;2022-11-11T00:07:24;3.45;;;1.38;;
1446;SDS011;717;51.522;7.266;2022-11-11T00:09:52;3.35;;;0.90;;
1446;SDS011;717;51.522;7.266;2022-11-11T00:12:21;1.85;;;1.08;;
1446;SDS011;717;51.522;7.266;2022-11-11T00:14:49;1.63;;;0.80;;
1446;SDS011;717;51.522;7.266;2022-11-11T00:17:18;1.55;;;0.80;;
1446;SDS011;717;51.522;7.266;2022-11-11T00:19:59;2.80;;;1.00;;
1446;SDS011;717;51.522;7.266;2022-11-11T00:22:42;2.55;;;1.08;;
1446;SDS011;717;51.522;7.266;2022-11-11T00:25:23;3.25;;;1.23;;
1446;SDS011;717;51.522;7.266;2022-11-11T00:27:52;2.67;;;1.23;;
1446;SDS011;717;51.522;7.266;2022-11-11T00:30:21;1.52;;;1.00;;
1446;SDS011;717;51.522;7.266;2022-11-11T00:32:49;3.30;;;1.30;;
1446;SDS011;717;51.522;7.266;2022-11-11T00:35:18;2.17;;;1.15;;
1446;SDS011;717;51.522;7.266;2022-11-11T00:38:07;2.83;;;1.30;;
1446;SDS011;717;51.522;7.266;2022-11-11T00:40:57;3.92;;;1.30;;
1446;SDS011;717;51.522;7.266;2022-11-11T00:43:25;3.28;;;1.30;;
1446;SDS011;717;51.522;7.266;2022-11-11T00:45:54;2.05;;;1.20;;
1446;SDS011;717;51.522;7.266;2022-11-11T00:48:43;3.70;;;1.33;;
1446;SDS011;717;51.522;7.266;2022-11-11T00:51:24;1.95;;;1.30;;
1446;SDS011;717;51.522;7.266;2022-11-11T00:53:55;4.72;;;1.60;;
1446;SDS011;717;51.522;7.266;2022-11-11T00:56:24;3.47;;;1.30;;
1446;SDS011;717;51.522;7.266;2022-11-11T00:58:53;2.10;;;1.35;;
1446;SDS011;717;51.522;7.266;2022-11-11T01:01:21;3.25;;;1.40;;
1446;SDS011;717;51.522;7.266;2022-11-11T01:03:50;5.20;;;1.50;;
1446;SDS011;717;51.522;7.266;2022-11-11T01:06:18;2.85;;;1.33;;
1446;SDS011;717;51.522;7.266;2022-11-11T01:08:47;4.82;;;1.30;;
1446;SDS011;717;51.522;7.266;2022-11-11T01:11:19;4.05;;;1.30;;
1446;SDS011;717;51.522;7.266;2022-11-11T01:13:49;4.75;;;1.67;;
1446;SDS011;717;51.522;7.266;2022-11-11T01:16:18;4.32;;;1.60;;
1446;SDS011;717;51.522;7.266;2022-11-11T01:18:49;3.10;;;1.70;;
1446;SDS011;717;51.522;7.266;2022-11-11T01:21:19;2.83;;;1.00;;
1446;SDS011;717;51.522;7.266;2022-11-11T01:23:49;3.50;;;1.58;;
1446;SDS011;717;51.522;7.266;2022-11-11T01:26:22;2.47;;;1.25;;
1446;SDS011;717;51.522;7.266;2022-11-11T01:28:53;2.35;;;1.30;;
1446;SDS011;717;51.522;7.266;2022-11-11T01:31:23;3.03;;;1.20;;
1446;SDS011;717;51.522;7.266;2022-11-11T01:33:53;4.50;;;1.58;;
1446;SDS011;717;51.522;7.266;2022-11-11T01:36:23;3.47;;;1.15;;
1446;SDS011;717;51.522;7.266;2022-11-11T01:38:53;5.00;;;1.30;;
1446;SDS011;717;51.522;7.266;2022-11-11T01:41:27;3.45;;;1.58;;
1446;SDS011;717;51.522;7.266;2022-11-11T01:44:03;3.38;;;1.48;;
1446;SDS011;717;51.522;7.266;2022-11-11T01:46:46;3.53;;;1.10;;
1446;SDS011;717;51.522;7.266;2022-11-11T01:49:20;2.97;;;1.20;;
1446;SDS011;717;51.522;7.266;2022-11-11T01:51:54;3.25;;;1.30;;
1446;SDS011;717;51.522;7.266;2022-11-11T01:54:27;3.28;;;1.33;;
1446;SDS011;717;51.522;7.266;2022-11-11T01:57:04;3.15;;;1.10;;
1446;SDS011;717;51.522;7.266;2022-11-11T01:59:36;2.85;;;1.33;;
1446;SDS011;717;51.522;7.266;2022-11-11T02:02:08;3.72;;;1.10;;
1446;SDS011;717;51.522;7.266;2022-11-11T02:04:43;3.10;;;1.17;;
1446;SDS011;717;51.522;7.266;2022-11-11T02:07:25;1.65;;;1.02;;
1446;SDS011;717;51.522;7.266;2022-11-11T02:09:55;3.42;;;1.30;;
1446;SDS011;717;51.522;7.266;2022-11-11T02:12:27;3.42;;;1.30;;
1446;SDS011;717;51.522;7.266;2022-11-11T02:15:08;2.95;;;1.23;;
1446;SDS011;717;51.522;7.266;2022-11-11T02:17:37;2.13;;;1.25;;
1446;SDS011;717;51.522;7.266;2022-11-11T02:20:06;3.90;;;1.52;;
1446;SDS011;717;51.522;7.266;2022-11-11T02:22:41;2.33;;;1.23;;
1446;SDS011;717;51.522;7.266;2022-11-11T02:25:18;4.35;;;1.35;;
1446;SDS011;717;51.522;7.266;2022-11-11T02:27:50;3.03;;;1.02;;
1446;SDS011;717;51.522;7.266;2022-11-11T02:30:20;3.42;;;1.27;;
1446;SDS011;717;51.522;7.266;2022-11-11T02:32:49;2.80;;;1.30;;
1446;SDS011;717;51.522;7.266;2022-11-11T02:35:19;2.08;;;1.00;;
1446;SDS011;717;51.522;7.266;2022-11-11T02:37:51;2.75;;;0.95;;
1446;SDS011;717;51.522;7.266;2022-11-11T02:40:24;5.88;;;1.30;;
1446;SDS011;717;51.522;7.266;2022-11-11T02:42:55;2.08;;;1.23;;
1446;SDS011;717;51.522;7.266;2022-11-11T02:45:21;3.78;;;1.10;;
1446;SDS011;717;51.522;7.266;2022-11-11T02:47:50;2.45;;;1.30;;
1446;SDS011;717;51.522;7.266;2022-11-11T02:50:18;2.85;;;1.10;;
1446;SDS011;717;51.522;7.266;2022-11-11T02:52:47;3.50;;;1.23;;
1446;SDS011;717;51.522;7.266;2022-11-11T02:55:16;3.72;;;1.20;;
1446;SDS011;717;51.522;7.266;2022-11-11T02:57:47;2.92;;;1.15;;
1446;SDS011;717;51.522;7.266;2022-11-11T03:00:16;2.47;;;1.17;;
1446;SDS011;717;51.522;7.266;2022-11-11T03:02:45;2.47;;;1.30;;
1446;SDS011;717;51.522;7.266;2022-11-11T03:05:13;2.95;;;1.20;;
1446;SDS011;717;51.522;7.266;2022-11-11T03:07:42;3.08;;;1.33;;
1446;SDS011;717;51.522;7.266;2022-11-11T03:10:10;3.10;;;1.30;;
1446;SDS011;717;51.522;7.266;2022-11-11T03:12:39;1.42;;;1.00;;
1446;SDS011;717;51.522;7.266;2022-11-11T03:15:10;1.65;;;1.02;;
1446;SDS011;717;51.522;7.266;2022-11-11T03:17:39;3.75;;;1.33;;
1446;SDS011;717;51.522;7.266;2022-11-11T03:20:05;2.47;;;1.20;;
1446;SDS011;717;51.522;7.266;2022-11-11T03:22:57;2.55;;;1.23;;
1446;SDS011;717;51.522;7.266;2022-11-11T03:25:27;2.63;;;1.30;;
1446;SDS011;717;51.522;7.266;2022-11-11T03:28:02;3.05;;;1.23;;
1446;SDS011;717;51.522;7.266;2022-11-11T03:30:33;3.22;;;1.40;;
1446;SDS011;717;51.522;7.266;2022-11-11T03:33:03;1.80;;;1.27;;
1446;SDS011;717;51.522;7.266;2022-11-11T03:35:32;3.03;;;1.50;;
1446;SDS011;717;51.522;7.266;2022-11-11T03:38:01;1.77;;;1.10;;
1446;SDS011;717;51.522;7.266;2022-11-11T03:40:47;3.42;;;1.40;;
1446;SDS011;717;51.522;7.266;2022-11-11T03:43:18;1.65;;;1.30;;
1446;SDS011;717;51.522;7.266;2022-11-11T03:45:50;2.63;;;0.98;;
1446;SDS011;717;51.522;7.266;2022-11-11T03:48:19;3.00;;;1.30;;
1446;SDS011;717;51.522;7.266;2022-11-11T03:50:48;3.30;;;1.30;;
1446;SDS011;717;51.522;7.266;2022-11-11T03:53:17;2.10;;;1.05;;
1446;SDS011;717;51.522;7.266;2022-11-11T03:55:47;2.60;;;0.95;;
1446;SDS011;717;51.522;7.266;2022-11-11T03:58:16;2.15;;;1.17;;
1446;SDS011;717;51.522;7.266;2022-11-11T04:00:45;1.55;;;1.00;;
1446;SDS011;717;51.522;7.266;2022-11-11T04:03:16;3.05;;;1.10;;
1446;SDS011;717;51.522;7.266;2022-11-11T04:05:59;1.30;;;0.90;;
1446;SDS011;717;51.522;7.266;2022-11-11T04:08:40;1.63;;;1.08;;
1446;SDS011;717;51.522;7.266;2022-11-11T04:11:22;2.13;;;1.20;;
1446;SDS011;717;51.522;7.266;2022-11-11T04:13:54;2.35;;;0.90;;
1446;SDS011;717;51.522;7.266;2022-11-11T04:16:37;3.00;;;0.95;;
1446;SDS011;717;51.522;7.266;2022-11-11T04:19:08;2.60;;;1.10;;
1446;SDS011;717;51.522;7.266;2022-11-11T04:21:49;1.58;;;1.00;;
1446;SDS011;717;51.522;7.266;2022-11-11T04:24:19;1.67;;;0.90;;
1446;SDS011;717;51.522;7.266;2022-11-11T04:27:01;3.28;;;1.15;;
1446;SDS011;717;51.522;7.266;2022-11-11T04:29:31;1.48;;;1.00;;
1446;SDS011;717;51.522;7.266;2022-11-11T04:31:58;1.98;;;1.10;;
1446;SDS011;717;51.522;7.266;2022-11-11T04:34:43;3.15;;;1.30;;
1446;SDS011;717;51.522;7.266;2022-11-11T04:37:13;2.03;;;0.93;;
1446;SDS011;717;51.522;7.266;2022-11-11T04:39:42;3.15;;;1.17;;
1446;SDS011;717;51.522;7.266;2022-11-11T04:42:24;1.75;;;1.27;;
1446;SDS011;717;51.522;7.266;2022-11-11T04:44:53;4.30;;;1.30;;
1446;SDS011;717;51.522;7.266;2022-11-11T04:47:34;2.15;;;1.20;;
1446;SDS011;717;51.522;7.266;2022-11-11T04:50:06;2.88;;;1.23;;
1446;SDS011;717;51.522;7.266;2022-11-11T04:52:35;1.92;;;1.08;;
1446;SDS011;717;51.522;7.266;2022-11-11T04:55:04;2.58;;;1.23;;
1446;SDS011;717;51.522;7.266;2022-11-11T04:58:01;2.65;;;1.40;;
1446;SDS011;717;51.522;7.266;2022-11-11T05:00:30;1.63;;;0.90;;
1446;SDS011;717;51.522;7.266;2022-11-11T05:02:59;4.35;;;1.10;;
1446;SDS011;717;51.522;7.266;2022-11-11T05:05:43;1.73;;;0.98;;
1446;SDS011;717;51.522;7.266;2022-11-11T05:08:25;2.03;;;1.10;;
1446;SDS011;717;51.522;7.266;2022-11-11T05:11:06;2.42;;;1.00;;
1446;SDS011;717;51.522;7.266;2022-11-11T05:13:34;1.10;;;0.90;;
1446;SDS011;717;51.522;7.266;2022-11-11T05:16:16;1.23;;;0.80;;
1446;SDS011;717;51.522;7.266;2022-11-11T05:18:59;2.08;;;0.82;;
1446;SDS011;717;51.522;7.266;2022-11-11T05:21:43;1.83;;;0.90;;
1446;SDS011;717;51.522;7.266;2022-11-11T05:24:12;1.85;;;1.20;;
1446;SDS011;717;51.522;7.266;2022-11-11T05:26:53;1.83;;;0.85;;
1446;SDS011;717;51.522;7.266;2022-11-11T05:29:21;2.72;;;1.00;;
1446;SDS011;717;51.522;7.266;2022-11-11T05:31:50;1.55;;;1.00;;
1446;SDS011;717;51.522;7.266;2022-11-11T05:34:18;3.35;;;1.00;;
1446;SDS011;717;51.522;7.266;2022-11-11T05:36:49;1.17;;;0.70;;
1446;SDS011;717;51.522;7.266;2022-11-11T05:39:18;1.25;;;0.98;;
1446;SDS011;717;51.522;7.266;2022-11-11T05:41:46;2.22;;;1.17;;
1446;SDS011;717;51.522;7.266;2022-11-11T05:44:15;2.30;;;0.90;;
1446;SDS011;717;51.522;7.266;2022-11-11T05:46:43;2.05;;;0.90;;
1446;SDS011;717;51.522;7.266;2022-11-11T05:49:12;1.55;;;0.77;;
1446;SDS011;717;51.522;7.266;2022-11-11T05:51:43;1.45;;;0.80;;
1446;SDS011;717;51.522;7.266;2022-11-11T05:54:15;2.42;;;0.95;;
1446;SDS011;717;51.522;7.266;2022-11-11T05:56:44;1.42;;;0.93;;
1446;SDS011;717;51.522;7.266;2022-11-11T05:59:13;2.55;;;1.30;;
1446;SDS011;717;51.522;7.266;2022-11-11T06:01:41;2.58;;;1.00;;
1446;SDS011;717;51.522;7.266;2022-11-11T06:04:10;1.38;;;0.82;;
1446;SDS011;717;51.522;7.266;2022-11-11T06:06:39;2.92;;;0.90;;
1446;SDS011;717;51.522;7.266;2022-11-11T06:09:07;1.90;;;1.05;;
1446;SDS011;717;51.522;7.266;2022-11-11T06:11:39;2.00;;;0.98;;
1446;SDS011;717;51.522;7.266;2022-11-11T06:14:07;3.13;;;1.30;;
1446;SDS011;717;51.522;7.266;2022-11-11T06:16:36;1.75;;;1.00;;
1446;SDS011;717;51.522;7.266;2022-11-11T06:19:04;2.20;;;1.05;;
1446;SDS011;717;51.522;7.266;2022-11-11T06:21:33;4.32;;;1.20;;
1446;SDS011;717;51.522;7.266;2022-11-11T06:24:20;2.60;;;1.20;;
1446;SDS011;717;51.522;7.266;2022-11-11T06:26:52;1.77;;;0.93;;
1446;SDS011;717;51.522;7.266;2022-11-11T06:29:20;1.48;;;1.02;;
1446;SDS011;717;51.522;7.266;2022-11-11T06:31:49;2.13;;;1.10;;
1446;SDS011;717;51.522;7.266;2022-11-11T06:34:18;2.63;;;1.08;;
1446;SDS011;717;51.522;7.266;2022-11-11T06:36:46;2.58;;;1.30;;
1446;SDS011;717;51.522;7.266;2022-11-11T06:39:15;2.80;;;1.05;;
1446;SDS011;717;51.522;7.266;2022-11-11T06:41:44;1.52;;;0.95;;
1446;SDS011;717;51.522;7.266;2022-11-11T06:44:15;1.65;;;1.00;;
1446;SDS011;717;51.522;7.266;2022-11-11T06:46:43;4.22;;;1.35;;
1446;SDS011;717;51.522;7.266;2022-11-11T06:49:12;1.90;;;1.00;;
1446;SDS011;717;51.522;7.266;2022-11-11T06:51:40;2.63;;;1.33;;
1446;SDS011;717;51.522;7.266;2022-11-11T06:54:09;2.65;;;1.00;;
1446;SDS011;717;51.522;7.266;2022-11-11T06:56:37;2.83;;;0.98;;
1446;SDS011;717;51.522;7.266;2022-11-11T06:59:06;2.03;;;1.00;;
1446;SDS011;717;51.522;7.266;2022-11-11T07:01:37;2.20;;;1.20;;
1446;SDS011;717;51.522;7.266;2022-11-11T07:04:05;2.05;;;1.00;;
1446;SDS011;717;51.522;7.266;2022-11-11T07:06:34;2.47;;;1.20;;
1446;SDS011;717;51.522;7.266;2022-11-11T07:09:02;1.30;;;1.00;;
1446;SDS011;717;51.522;7.266;2022-11-11T07:11:31;2.65;;;1.23;;
1446;SDS011;717;51.522;7.266;2022-11-11T07:13:59;1.60;;;1.15;;
1446;SDS011;717;51.522;7.266;2022-11-11T07:16:28;1.67;;;1.10;;
1446;SDS011;717;51.522;7.266;2022-11-11T07:18:59;1.27;;;0.95;;
1446;SDS011;717;51.522;7.266;2022-11-11T07:21:28;1.63;;;1.00;;
1446;SDS011;717;51.522;7.266;2022-11-11T07:23:56;2.90;;;1.10;;
1446;SDS011;717;51.522;7.266;2022-11-11T07:26:25;4.50;;;1.20;;
1446;SDS011;717;51.522;7.266;2022-11-11T07:28:53;1.85;;;1.27;;
1446;SDS011;717;51.522;7.266;2022-11-11T07:31:22;2.25;;;1.20;;
1446;SDS011;717;51.522;7.266;2022-11-11T07:33:51;2.70;;;1.38;;
1446;SDS011;717;51.522;7.266;2022-11-11T07:36:22;2.67;;;1.17;;
1446;SDS011;717;51.522;7.266;2022-11-11T07:38:50;3.83;;;1.40;;
1446;SDS011;717;51.522;7.266;2022-11-11T07:41:19;3.67;;;1.30;;
1446;SDS011;717;51.522;7.266;2022-11-11T07:43:47;3.47;;;1.50;;
1446;SDS011;717;51.522;7.266;2022-11-11T07:46:17;3.10;;;1.27;;
1446;SDS011;717;51.522;7.266;2022-11-11T07:48:45;3.90;;;1.20;;
1446;SDS011;717;51.522;7.266;2022-11-11T07:51:14;5.43;;;1.55;;
1446;SDS011;717;51.522;7.266;2022-11-11T07:53:45;4.13;;;1.60;;
1446;SDS011;717;51.522;7.266;2022-11-11T07:56:14;2.92;;;1.45;;
1446;SDS011;717;51.522;7.266;2022-11-11T07:58:42;3.05;;;1.38;;
1446;SDS011;717;51.522;7.266;2022-11-11T08:01:11;2.80;;;0.90;;
1446;SDS011;717;51.522;7.266;2022-11-11T08:03:39;2.95;;;1.48;;
1446;SDS011;717;51.522;7.266;2022-11-11T08:06:13;3.03;;;1.20;;
1446;SDS011;717;51.522;7.266;2022-11-11T08:08:45;1.73;;;1.02;;
1446;SDS011;717;51.522;7.266;2022-11-11T08:11:14;2.58;;;0.90;;
1446;SDS011;717;51.522;7.266;2022-11-11T08:14:04;3.20;;;0.98;;
1446;SDS011;717;51.522;7.266;2022-11-11T08:16:30;3.10;;;1.00;;
1446;SDS011;717;51.522;7.266;2022-11-11T08:18:58;4.43;;;0.98;;
1446;SDS011;717;51.522;7.266;2022-11-11T08:21:27;2.15;;;0.98;;
1446;SDS011;717;51.522;7.266;2022-11-11T08:23:58;2.47;;;0.90;;
1446;SDS011;717;51.522;7.266;2022-11-11T08:26:26;2.42;;;0.95;;
1446;SDS011;717;51.522;7.266;2022-11-11T08:28:55;1.83;;;1.08;;
1446;SDS011;717;51.522;7.266;2022-11-11T08:31:24;3.40;;;1.10;;
1446;SDS011;717;51.522;7.266;2022-11-11T08:33:53;2.70;;;1.00;;
1446;SDS011;717;51.522;7.266;2022-11-11T08:36:21;3.35;;;0.95;;
1446;SDS011;717;51.522;7.266;2022-11-11T08:38:51;2.75;;;0.90;;
1446;SDS011;717;51.522;7.266;2022-11-11T08:41:22;1.77;;;0.93;;
1446;SDS011;717;51.522;7.266;2022-11-11T08:43:51;1.98;;;0.95;;
1446;SDS011;717;51.522;7.266;2022-11-11T08:46:20;2.95;;;0.80;;
1446;SDS011;717;51.522;7.266;2022-11-11T08:48:49;2.25;;;0.90;;
1446;SDS011;717;51.522;7.266;2022-11-11T08:51:18;3.20;;;1.10;;
1446;SDS011;717;51.522;7.266;2022-11-11T08:53:46;2.83;;;1.10;;
1446;SDS011;717;51.522;7.266;2022-11-11T08:56:15;2.45;;;1.30;;
1446;SDS011;717;51.522;7.266;2022-11-11T08:58:46;4.28;;;0.95;;
1446;SDS011;717;51.522;7.266;2022-11-11T09:01:15;4.82;;;0.98;;
1446;SDS011;717;51.522;7.266;2022-11-11T09:03:43;1.95;;;1.00;;
1446;SDS011;717;51.522;7.266;2022-11-11T09:06:12;3.42;;;0.93;;
1446;SDS011;717;51.522;7.266;2022-11-11T09:08:41;1.45;;;0.88;;
1446;SDS011;717;51.522;7.266;2022-11-11T09:11:10;3.00;;;1.05;;
1446;SDS011;717;51.522;7.266;2022-11-11T09:13:39;2.50;;;1.00;;
1446;SDS011;717;51.522;7.266;2022-11-11T09:16:10;2.53;;;0.80;;
1446;SDS011;717;51.522;7.266;2022-11-11T09:18:38;1.95;;;0.50;;
1446;SDS011;717;51.522;7.266;2022-11-11T09:21:07;2.83;;;0.70;;
1446;SDS011;717;51.522;7.266;2022-11-11T09:23:36;2.58;;;0.73;;
1446;SDS011;717;51.522;7.266;2022-11-11T09:26:05;2.05;;;1.00;;
1446;SDS011;717;51.522;7.266;2022-11-11T09:28:34;2.42;;;0.85;;
1446;SDS011;717;51.522;7.266;2022-11-11T09:31:02;1.95;;;0.80;;
1446;SDS011;717;51.522;7.266;2022-11-11T09:33:34;1.42;;;0.57;;
1446;SDS011;717;51.522;7.266;2022-11-11T09:36:02;2.05;;;0.63;;
1446;SDS011;717;51.522;7.266;2022-11-11T09:38:31;1.80;;;0.82;;
1446;SDS011;717;51.522;7.266;2022-11-11T09:41:04;0.88;;;0.63;;
1446;SDS011;717;51.522;7.266;2022-11-11T09:43:46;5.47;;;1.30;;
1446;SDS011;717;51.522;7.266;2022-11-11T09:52:02;2.83;;;1.02;;
1446;SDS011;717;51.522;7.266;2022-11-11T09:54:38;3.13;;;0.85;;
1446;SDS011;717;51.522;7.266;2022-11-11T09:57:11;2.78;;;1.02;;
1446;SDS011;717;51.522;7.266;2022-11-11T09:59:45;3.17;;;1.15;;
1446;SDS011;717;51.522;7.266;2022-11-11T10:02:18;3.55;;;0.80;;
1446;SDS011;717;51.522;7.266;2022-11-11T10:04:54;2.30;;;0.80;;
1446;SDS011;717;51.522;7.266;2022-11-11T10:07:29;2.60;;;0.80;;
1446;SDS011;717;51.522;7.266;2022-11-11T10:10:05;5.55;;;0.93;;
1446;SDS011;717;51.522;7.266;2022-11-11T10:12:41;1.40;;;0.70;;
1446;SDS011;717;51.522;7.266;2022-11-11T10:15:14;1.27;;;0.73;;
1446;SDS011;717;51.522;7.266;2022-11-11T10:17:46;2.25;;;0.82;;
1446;SDS011;717;51.522;7.266;2022-11-11T10:20:27;2.03;;;0.77;;
1446;SDS011;717;51.522;7.266;2022-11-11T10:22:59;1.08;;;0.90;;
1446;SDS011;717;51.522;7.266;2022-11-11T10:25:34;1.05;;;0.75;;
1446;SDS011;717;51.522;7.266;2022-11-11T10:28:07;1.63;;;0.60;;
1446;SDS011;717;51.522;7.266;2022-11-11T10:30:42;3.55;;;1.00;;
1446;SDS011;717;51.522;7.266;2022-11-11T10:33:13;1.58;;;0.93;;
1446;SDS011;717;51.522;7.266;2022-11-11T10:35:48;1.50;;;0.98;;
1446;SDS011;717;51.522;7.266;2022-11-11T10:38:22;2.03;;;0.70;;
1446;SDS011;717;51.522;7.266;2022-11-11T10:41:00;2.33;;;1.05;;
1446;SDS011;717;51.522;7.266;2022-11-11T10:43:36;2.25;;;0.90;;
1446;SDS011;717;51.522;7.266;2022-11-11T10:46:06;1.90;;;0.80;;
1446;SDS011;717;51.522;7.266;2022-11-11T10:48:43;2.25;;;1.10;;
1446;SDS011;717;51.522;7.266;2022-11-11T10:51:21;2.17;;;1.10;;
1446;SDS011;717;51.522;7.266;2022-11-11T10:54:00;3.20;;;0.90;;
1446;SDS011;717;51.522;7.266;2022-11-11T10:56:33;1.80;;;0.95;;
1446;SDS011;717;51.522;7.266;2022-11-11T10:59:09;1.52;;;1.02;;
1446;SDS011;717;51.522;7.266;2022-11-11T11:01:46;4.20;;;0.65;;
1446;SDS011;717;51.522;7.266;2022-11-11T11:04:23;4.97;;;1.20;;
1446;SDS011;717;51.522;7.266;2022-11-11T11:07:00;1.83;;;0.63;;
1446;SDS011;717;51.522;7.266;2022-11-11T11:09:34;1.23;;;0.88;;
1446;SDS011;717;51.522;7.266;2022-11-11T11:12:09;2.97;;;0.98;;
1446;SDS011;717;51.522;7.266;2022-11-11T11:14:44;1.70;;;0.70;;
1446;SDS011;717;51.522;7.266;2022-11-11T11:17:19;2.50;;;0.93;;
1446;SDS011;717;51.522;7.266;2022-11-11T11:20:05;1.67;;;0.68;;
1446;SDS011;717;51.522;7.266;2022-11-11T11:22:49;2.60;;;0.85;;
1446;SDS011;717;51.522;7.266;2022-11-11T11:25:20;1.05;;;0.88;;
1446;SDS011;717;51.522;7.266;2022-11-11T11:27:50;1.05;;;0.60;;
1446;SDS011;717;51.522;7.266;2022-11-11T11:30:21;2.17;;;0.98;;
1446;SDS011;717;51.522;7.266;2022-11-11T11:32:54;1.92;;;0.85;;
1446;SDS011;717;51.522;7.266;2022-11-11T11:35:28;2.38;;;0.60;;
1446;SDS011;717;51.522;7.266;2022-11-11T11:38:01;1.95;;;0.80;;
1446;SDS011;717;51.522;7.266;2022-11-11T11:40:44;1.33;;;0.63;;
1446;SDS011;717;51.522;7.266;2022-11-11T11:43:30;1.80;;;0.85;;
1446;SDS011;717;51.522;7.266;2022-11-11T11:46:01;1.90;;;0.75;;
1446;SDS011;717;51.522;7.266;2022-11-11T11:48:34;1.02;;;0.50;;
1446;SDS011;717;51.522;7.266;2022-11-11T11:51:17;1.83;;;0.60;;
1446;SDS011;717;51.522;7.266;2022-11-11T11:53:59;1.17;;;0.68;;
1446;SDS011;717;51.522;7.266;2022-11-11T11:56:39;1.15;;;0.50;;
1446;SDS011;717;51.522;7.266;2022-11-11T11:59:12;1.30;;;0.50;;
1446;SDS011;717;51.522;7.266;2022-11-11T12:01:49;2.70;;;0.82;;
1446;SDS011;717;51.522;7.266;2022-11-11T12:04:29;1.27;;;0.40;;
1446;SDS011;717;51.522;7.266;2022-11-11T12:07:28;1.85;;;0.50;;
1446;SDS011;717;51.522;7.266;2022-11-11T12:10:15;0.77;;;0.35;;
1446;SDS011;717;51.522;7.266;2022-11-11T12:12:53;2.38;;;0.65;;
1446;SDS011;717;51.522;7.266;2022-11-11T12:15:30;2.45;;;0.40;;
1446;SDS011;717;51.522;7.266;2022-11-11T12:18:09;1.52;;;0.60;;
1446;SDS011;717;51.522;7.266;2022-11-11T12:20:56;1.65;;;0.70;;
1446;SDS011;717;51.522;7.266;2022-11-11T12:23:37;1.42;;;0.65;;
1446;SDS011;717;51.522;7.266;2022-11-11T12:26:21;1.25;;;0.43;;
1446;SDS011;717;51.522;7.266;2022-11-11T12:28:58;1.35;;;0.57;;
1446;SDS011;717;51.522;7.266;2022-11-11T12:31:39;1.90;;;0.60;;
1446;SDS011;717;51.522;7.266;2022-11-11T12:34:27;0.60;;;0.40;;
1446;SDS011;717;51.522;7.266;2022-11-11T12:37:11;1.77;;;0.50;;
1446;SDS011;717;51.522;7.266;2022-11-11T12:39:56;1.40;;;0.40;;
1446;SDS011;717;51.522;7.266;2022-11-11T12:42:40;1.35;;;0.40;;
1446;SDS011;717;51.522;7.266;2022-11-11T12:45:20;1.10;;;0.75;;
1446;SDS011;717;51.522;7.266;2022-11-11T12:47:56;1.25;;;0.50;;
1446;SDS011;717;51.522;7.266;2022-11-11T12:50:34;0.88;;;0.32;;
1446;SDS011;717;51.522;7.266;2022-11-11T12:53:15;2.35;;;0.65;;
1446;SDS011;717;51.522;7.266;2022-11-11T12:55:57;1.15;;;0.60;;
1446;SDS011;717;51.522;7.266;2022-11-11T12:58:36;0.98;;;0.50;;
1446;SDS011;717;51.522;7.266;2022-11-11T13:01:13;0.95;;;0.45;;
1446;SDS011;717;51.522;7.266;2022-11-11T13:03:53;0.93;;;0.50;;
1446;SDS011;717;51.522;7.266;2022-11-11T13:06:34;2.65;;;0.50;;
1446;SDS011;717;51.522;7.266;2022-11-11T13:09:21;1.98;;;0.80;;
1446;SDS011;717;51.522;7.266;2022-11-11T13:12:01;1.17;;;0.40;;
1446;SDS011;717;51.522;7.266;2022-11-11T13:14:43;1.40;;;0.60;;
1446;SDS011;717;51.522;7.266;2022-11-11T13:17:18;2.63;;;0.73;;
1446;SDS011;717;51.522;7.266;2022-11-11T13:19:48;1.83;;;0.55;;
1446;SDS011;717;51.522;7.266;2022-11-11T13:22:20;0.95;;;0.50;;
1446;SDS011;717;51.522;7.266;2022-11-11T13:24:50;1.25;;;0.60;;
1446;SDS011;717;51.522;7.266;2022-11-11T13:27:24;8.10;;;1.10;;
1446;SDS011;717;51.522;7.266;2022-11-11T13:30:06;3.72;;;0.85;;
1446;SDS011;717;51.522;7.266;2022-11-11T13:32:53;1.77;;;0.80;;
1446;SDS011;717;51.522;7.266;2022-11-11T13:35:27;2.35;;;1.00;;
1446;SDS011;717;51.522;7.266;2022-11-11T13:37:58;2.92;;;0.70;;
1446;SDS011;717;51.522;7.266;2022-11-11T13:40:32;2.03;;;0.77;;
1446;SDS011;717;51.522;7.266;2022-11-11T13:43:04;1.33;;;0.88;;
1446;SDS011;717;51.522;7.266;2022-11-11T13:45:48;2.33;;;0.93;;
1446;SDS011;717;51.522;7.266;2022-11-11T13:48:19;0.65;;;0.45;;
1446;SDS011;717;51.522;7.266;2022-11-11T13:50:51;2.03;;;0.70;;
1446;SDS011;717;51.522;7.266;2022-11-11T13:53:24;1.23;;;0.55;;
1446;SDS011;717;51.522;7.266;2022-11-11T13:55:59;0.80;;;0.45;;
1446;SDS011;717;51.522;7.266;2022-11-11T13:58:31;1.48;;;0.57;;
1446;SDS011;717;51.522;7.266;2022-11-11T14:01:05;1.08;;;0.60;;
1446;SDS011;717;51.522;7.266;2022-11-11T14:06:37;1.23;;;0.43;;
1446;SDS011;717;51.522;7.266;2022-11-11T14:12:19;2.17;;;0.68;;
1446;SDS011;717;51.522;7.266;2022-11-11T14:14:54;0.77;;;0.47;;
1446;SDS011;717;51.522;7.266;2022-11-11T14:17:26;0.85;;;0.60;;
1446;SDS011;717;51.522;7.266;2022-11-11T14:19:56;1.15;;;0.60;;
1446;SDS011;717;51.522;7.266;2022-11-11T14:22:29;1.50;;;0.60;;
1446;SDS011;717;51.522;7.266;2022-11-11T14:25:10;2.30;;;0.60;;
1446;SDS011;717;51.522;7.266;2022-11-11T14:27:48;0.82;;;0.70;;
1446;SDS011;717;51.522;7.266;2022-11-11T14:30:32;1.70;;;0.90;;
1446;SDS011;717;51.522;7.266;2022-11-11T14:33:07;1.73;;;0.80;;
1446;SDS011;717;51.522;7.266;2022-11-11T14:35:43;3.08;;;0.95;;
1446;SDS011;717;51.522;7.266;2022-11-11T14:38:26;1.45;;;0.90;;
1446;SDS011;717;51.522;7.266;2022-11-11T14:47:24;2.67;;;1.00;;
1446;SDS011;717;51.522;7.266;2022-11-11T14:50:02;3.55;;;1.10;;
1446;SDS011;717;51.522;7.266;2022-11-11T14:52:50;3.10;;;1.40;;
1446;SDS011;717;51.522;7.266;2022-11-11T14:55:21;2.28;;;1.20;;
1446;SDS011;717;51.522;7.266;2022-11-11T14:57:55;1.75;;;1.10;;
1446;SDS011;717;51.522;7.266;2022-11-11T15:00:28;2.13;;;0.90;;
1446;SDS011;717;51.522;7.266;2022-11-11T15:03:00;2.00;;;1.00;;
1446;SDS011;717;51.522;7.266;2022-11-11T15:05:46;2.58;;;1.40;;
1446;SDS011;717;51.522;7.266;2022-11-11T15:08:20;1.38;;;1.05;;
1446;SDS011;717;51.522;7.266;2022-11-11T15:11:03;1.63;;;1.08;;
1446;SDS011;717;51.522;7.266;2022-11-11T15:13:46;2.28;;;1.10;;
1446;SDS011;717;51.522;7.266;2022-11-11T15:16:33;2.58;;;1.15;;
1446;SDS011;717;51.522;7.266;2022-11-11T15:19:19;8.00;;;1.20;;
1446;SDS011;717;51.522;7.266;2022-11-11T15:22:01;1.67;;;1.30;;
1446;SDS011;717;51.522;7.266;2022-11-11T15:24:38;2.17;;;1.88;;
1446;SDS011;717;51.522;7.266;2022-11-11T15:27:17;2.67;;;1.60;;
1446;SDS011;717;51.522;7.266;2022-11-11T15:30:01;2.85;;;1.52;;
1446;SDS011;717;51.522;7.266;2022-11-11T15:32:46;2.10;;;1.90;;
1446;SDS011;717;51.522;7.266;2022-11-11T15:35:31;2.53;;;1.85;;
1446;SDS011;717;51.522;7.266;2022-11-11T15:38:08;2.63;;;1.65;;
1446;SDS011;717;51.522;7.266;2022-11-11T15:40:44;3.95;;;2.33;;
1446;SDS011;717;51.522;7.266;2022-11-11T15:43:14;2.67;;;2.00;;
1446;SDS011;717;51.522;7.266;2022-11-11T15:45:45;4.70;;;2.05;;
1446;SDS011;717;51.522;7.266;2022-11-11T15:48:17;3.72;;;1.80;;
1446;SDS011;717;51.522;7.266;2022-11-11T15:50:47;3.15;;;1.90;;
1446;SDS011;717;51.522;7.266;2022-11-11T15:53:23;3.03;;;1.90;;
1446;SDS011;717;51.522;7.266;2022-11-11T15:55:54;2.88;;;2.13;;
1446;SDS011;717;51.522;7.266;2022-11-11T15:58:25;2.40;;;2.20;;
1446;SDS011;717;51.522;7.266;2022-11-11T16:00:54;6.30;;;2.50;;
1446;SDS011;717;51.522;7.266;2022-11-11T16:03:27;3.50;;;2.20;;
1446;SDS011;717;51.522;7.266;2022-11-11T16:06:00;4.35;;;2.53;;
1446;SDS011;717;51.522;7.266;2022-11-11T16:08:34;2.92;;;2.15;;
1446;SDS011;717;51.522;7.266;2022-11-11T16:11:03;4.43;;;2.47;;
1446;SDS011;717;51.522;7.266;2022-11-11T16:13:33;2.60;;;2.00;;
1446;SDS011;717;51.522;7.266;2022-11-11T16:16:07;3.72;;;2.20;;
1446;SDS011;717;51.522;7.266;2022-11-11T16:18:41;3.85;;;2.10;;
1446;SDS011;717;51.522;7.266;2022-11-11T16:21:13;3.33;;;2.05;;
1446;SDS011;717;51.522;7.266;2022-11-11T16:23:48;3.35;;;2.50;;
1446;SDS011;717;51.522;7.266;2022-11-11T16:26:18;3.97;;;2.53;;
1446;SDS011;717;51.522;7.266;2022-11-11T16:28:50;3.75;;;2.83;;